Time;durP1;ratioP1;P1;durP2;ratioP2;P2;SDS_P1;SDS_P2;PMS_P1;PMS_P2;Temp;Humidity;BMP_temperature;BMP_pressure;BME280_temperature;BME280_humidity;BME280_pressure;Samples;Min_cycle;Max_cycle;Signal;HPM_P1;HPM_P2
2023/01/26 00:01:29;;;;;;;5.53;3.03;;;;;;;1.79;100.00;-23865.75;5020788;28;20192;-76
2023/01/26 00:03:55;;;;;;;5.47;3.43;;;;;;;2.05;100.00;-23873.03;5015976;28;20254;-77
2023/01/26 00:06:21;;;;;;;6.30;3.10;;;;;;;1.66;100.00;-23862.03;5014446;28;20176;-76
2023/01/26 00:08:49;;;;;;;5.13;3.23;;;;;;;2.02;100.00;-23872.16;5013172;28;20639;-76
2023/01/26 00:11:17;;;;;;;6.00;2.87;;;;;;;1.58;100.00;-23859.88;5014512;28;20183;-75
2023/01/26 00:13:43;;;;;;;4.50;2.70;;;;;;;2.13;100.00;-23875.47;5014417;28;20294;-75
2023/01/26 00:16:10;;;;;;;3.93;2.40;;;;;;;2.28;100.00;-23879.59;5014398;28;20267;-76
2023/01/26 00:18:38;;;;;;;14.33;3.33;;;;;;;1.99;100.00;-23871.47;5014515;28;20171;-76
2023/01/26 00:21:04;;;;;;;5.90;3.20;;;;;;;2.43;100.00;-23883.88;5014421;28;20176;-76
2023/01/26 00:23:32;;;;;;;5.07;2.93;;;;;;;2.37;100.00;-23882.03;5013452;28;20184;-76
2023/01/26 00:25:57;;;;;;;4.33;3.47;;;;;;;1.90;100.00;-23868.88;5012867;28;20180;-75
2023/01/26 00:28:23;;;;;;;5.77;3.47;;;;;;;1.95;100.00;-23870.31;5013926;28;20183;-75
2023/01/26 00:30:48;;;;;;;5.83;3.37;;;;;;;1.98;100.00;-23871.03;5013144;28;20282;-75
2023/01/26 00:33:15;;;;;;;3.60;2.80;;;;;;;2.08;100.00;-23873.88;5012742;28;20636;-75
2023/01/26 00:35:44;;;;;;;4.53;3.03;;;;;;;2.21;100.00;-23877.59;5013859;28;20180;-76
2023/01/26 00:38:13;;;;;;;5.50;3.77;;;;;;;2.26;100.00;-23879.03;5022351;28;20176;-76
2023/01/26 00:40:39;;;;;;;3.83;2.50;;;;;;;2.06;100.00;-23873.31;5014347;28;20215;-75
2023/01/26 00:43:05;;;;;;;10.33;3.77;;;;;;;2.07;100.00;-23873.59;5013947;28;20172;-74
2023/01/26 00:45:30;;;;;;;3.97;2.93;;;;;;;1.94;100.00;-23870.03;5013878;28;20627;-76
2023/01/26 00:47:56;;;;;;;6.17;3.20;;;;;;;1.88;100.00;-23868.31;5013836;28;20666;-76
2023/01/26 00:50:21;;;;;;;5.67;3.37;;;;;;;1.90;100.00;-23868.88;5014048;28;20230;-76
2023/01/26 00:52:47;;;;;;;2.60;2.17;;;;;;;2.16;100.00;-23876.31;5014019;28;20192;-77
2023/01/26 00:55:13;;;;;;;2.57;2.27;;;;;;;2.03;100.00;-23872.47;5013763;28;20171;-76
2023/01/26 00:57:38;;;;;;;11.50;2.63;;;;;;;2.29;100.00;-23879.88;5012790;28;20172;-76
2023/01/26 01:00:05;;;;;;;8.60;3.83;;;;;;;2.01;100.00;-23872.03;5013405;28;20673;-75
2023/01/26 01:02:31;;;;;;;3.60;2.93;;;;;;;1.96;100.00;-23870.59;5013741;28;20687;-77
2023/01/26 01:04:56;;;;;;;3.00;2.70;;;;;;;1.84;100.00;-23867.03;5013523;28;20248;-75
2023/01/26 01:07:22;;;;;;;6.77;3.20;;;;;;;1.79;100.00;-23865.75;5012062;28;20207;-77
2023/01/26 01:09:48;;;;;;;4.77;3.13;;;;;;;2.05;100.00;-23873.03;5013474;28;20600;-75
2023/01/26 01:12:13;;;;;;;4.07;3.00;;;;;;;1.70;100.00;-23863.31;5012606;28;20228;-75
2023/01/26 01:14:39;;;;;;;4.80;2.80;;;;;;;1.69;100.00;-23863.03;5021713;28;20239;-75
2023/01/26 01:17:04;;;;;;;5.93;3.17;;;;;;;1.55;100.00;-23859.03;5013002;28;20183;-75
2023/01/26 01:19:30;;;;;;;6.23;2.90;;;;;;;1.94;100.00;-23870.03;5011843;28;20687;-74
2023/01/26 01:21:55;;;;;;;4.83;3.10;;;;;;;1.74;100.00;-23864.31;5012832;28;20184;-75
2023/01/26 01:24:20;;;;;;;11.03;2.73;;;;;;;1.89;100.00;-23868.59;5013696;28;20702;-74
2023/01/26 01:26:46;;;;;;;7.23;2.97;;;;;;;1.57;100.00;-23859.47;5013335;28;20259;-74
2023/01/26 01:29:13;;;;;;;9.53;2.83;;;;;;;1.72;100.00;-23863.75;5013104;28;20654;-74
2023/01/26 01:31:40;;;;;;;4.00;2.73;;;;;;;1.94;100.00;-23869.88;5012971;28;20184;-75
2023/01/26 01:34:05;;;;;;;4.03;2.97;;;;;;;2.00;100.00;-23871.75;5012123;28;20207;-75
2023/01/26 01:36:31;;;;;;;4.87;2.80;;;;;;;2.21;100.00;-23877.75;5012549;28;20176;-76
2023/01/26 01:38:56;;;;;;;5.10;2.70;;;;;;;2.27;100.00;-23879.16;5012796;28;20187;-76
2023/01/26 01:41:22;;;;;;;6.13;3.17;;;;;;;1.86;100.00;-23867.75;5012936;28;20635;-74
2023/01/26 01:43:48;;;;;;;3.67;3.33;;;;;;;2.14;100.00;-23875.75;5012745;28;20177;-75
2023/01/26 01:46:29;;;;;;;3.83;2.63;;;;;;;2.29;100.00;-23879.75;5012693;28;20184;-76
2023/01/26 01:49:04;;;;;;;6.67;3.60;;;;;;;2.17;100.00;-23876.47;5014030;28;20652;-76
2023/01/26 01:51:32;;;;;;;6.80;3.50;;;;;;;2.40;100.00;-23882.88;5017738;28;20172;-75
2023/01/26 01:54:03;;;;;;;4.90;3.30;;;;;;;2.45;100.00;-23884.44;5013023;28;20192;-75
2023/01/26 01:56:30;;;;;;;5.83;3.13;;;;;;;2.39;100.00;-23882.75;5012437;28;20184;-76
2023/01/26 01:58:59;;;;;;;4.23;3.20;;;;;;;2.43;100.00;-23883.88;5012583;28;20169;-77
2023/01/26 02:01:25;;;;;;;4.23;3.43;;;;;;;2.29;100.00;-23879.88;5012293;28;20176;-75
2023/01/26 02:03:55;;;;;;;12.90;3.83;;;;;;;2.33;100.00;-23881.03;5012838;28;20179;-75
2023/01/26 02:06:29;;;;;;;6.37;2.87;;;;;;;2.35;100.00;-23881.59;5012263;28;20172;-76
2023/01/26 02:08:56;;;;;;;5.07;3.30;;;;;;;2.16;100.00;-23876.31;5012522;28;20176;-75
2023/01/26 02:11:27;;;;;;;6.73;3.50;;;;;;;2.50;100.00;-23885.88;5012076;28;20176;-74
2023/01/26 02:13:53;;;;;;;8.20;4.40;;;;;;;1.93;100.00;-23869.59;5011766;28;20204;-75
2023/01/26 02:16:19;;;;;;;12.50;3.53;;;;;;;2.05;100.00;-23873.03;5011503;28;20606;-76
2023/01/26 02:18:45;;;;;;;3.60;2.57;;;;;;;2.38;100.00;-23882.31;5012310;28;20180;-75
2023/01/26 02:21:15;;;;;;;5.67;3.63;;;;;;;2.29;100.00;-23879.75;5012232;28;20168;-75
2023/01/26 02:23:43;;;;;;;6.93;4.00;;;;;;;2.29;100.00;-23879.75;5011136;28;20180;-75
2023/01/26 02:26:14;;;;;;;5.57;3.40;;;;;;;2.28;100.00;-23879.44;5019264;28;20234;-75
2023/01/26 02:28:41;;;;;;;10.70;3.63;;;;;;;2.38;100.00;-23882.31;5010367;28;20184;-75
2023/01/26 02:31:08;;;;;;;3.47;2.93;;;;;;;2.02;100.00;-23872.16;5012202;28;20171;-76
2023/01/26 02:33:34;;;;;;;6.60;3.57;;;;;;;2.19;100.00;-23877.16;5012021;28;20207;-75
2023/01/26 02:36:03;;;;;;;5.53;3.23;;;;;;;2.33;100.00;-23880.88;5011533;28;20237;-75
2023/01/26 02:38:41;;;;;;;7.90;3.63;;;;;;;2.16;100.00;-23876.31;5012325;28;20184;-75
2023/01/26 02:41:10;;;;;;;4.67;2.90;;;;;;;2.23;100.00;-23878.31;5011624;28;20260;-75
2023/01/26 02:43:36;;;;;;;8.53;3.40;;;;;;;2.21;100.00;-23877.75;5012127;28;20176;-75
2023/01/26 02:46:02;;;;;;;4.77;2.43;;;;;;;2.02;100.00;-23872.16;5013925;28;20682;-74
2023/01/26 02:51:11;;;;;;;4.67;3.60;;;;;;;2.21;100.00;-23877.75;5015763;28;20175;-75
2023/01/26 02:53:37;;;;;;;4.53;3.20;;;;;;;2.16;100.00;-23876.31;5015266;28;20235;-76
2023/01/26 02:56:03;;;;;;;6.40;2.97;;;;;;;2.09;100.00;-23874.31;5015990;28;20612;-75
2023/01/26 02:58:28;;;;;;;4.23;3.43;;;;;;;1.89;100.00;-23868.59;5015893;28;20165;-75
2023/01/26 03:00:54;;;;;;;6.83;3.50;;;;;;;2.20;100.00;-23877.31;5015833;28;20191;-74
2023/01/26 03:03:23;;;;;;;4.57;3.07;;;;;;;2.28;100.00;-23879.44;5022417;28;20635;-74
2023/01/26 03:05:49;;;;;;;7.07;3.90;;;;;;;1.83;100.00;-23866.75;5015356;28;20194;-77
2023/01/26 03:08:14;;;;;;;9.30;3.40;;;;;;;2.30;100.00;-23880.03;5015286;28;20180;-74
2023/01/26 03:10:40;;;;;;;6.10;3.40;;;;;;;1.95;100.00;-23870.31;5016174;28;20540;-74
2023/01/26 03:13:06;;;;;;;5.20;3.27;;;;;;;2.20;100.00;-23877.47;5013847;28;20277;-74
2023/01/26 03:15:51;;;;;;;6.07;3.17;;;;;;;1.93;100.00;-23869.59;5013979;28;20204;-74
2023/01/26 03:29:18;;;;;;;5.93;3.23;;;;;;;2.41;100.00;-23883.16;5015532;28;20287;-75
2023/01/26 03:31:44;;;;;;;5.27;3.20;;;;;;;2.31;100.00;-23880.31;5015274;28;20283;-75
2023/01/26 03:34:09;;;;;;;6.90;3.90;;;;;;;1.97;100.00;-23870.75;5014920;28;20206;-76
2023/01/26 03:36:36;;;;;;;5.30;3.30;;;;;;;2.09;100.00;-23874.31;5014249;28;20782;-75
2023/01/26 03:39:03;;;;;;;3.77;2.93;;;;;;;1.90;100.00;-23868.75;5023432;28;20566;-76
2023/01/26 03:57:52;;;;;;;5.17;3.50;;;;;;;1.71;100.00;-23863.59;5013986;28;20194;-75
2023/01/26 04:00:18;;;;;;;3.53;2.43;;;;;;;1.64;100.00;-23861.47;5013679;28;20188;-73
2023/01/26 04:08:25;;;;;;;7.13;2.87;;;;;;;1.80;100.00;-23866.03;5037174;28;20194;-75
2023/01/26 04:10:55;;;;;;;2.73;2.53;;;;;;;2.16;100.00;-23876.16;5016955;28;20279;-75
2023/01/26 04:21:37;;;;;;;6.20;3.27;;;;;;;2.08;100.00;-23874.03;5002345;28;20190;-75
2023/01/26 04:24:13;;;;;;;5.90;3.60;;;;;;;2.14;100.00;-23875.59;5007497;28;20192;-75
2023/01/26 04:26:39;;;;;;;6.40;4.13;;;;;;;1.96;100.00;-23870.47;5007020;28;20187;-76
2023/01/26 04:29:11;;;;;;;4.50;3.13;;;;;;;2.23;100.00;-23878.16;5008267;28;20633;-75
2023/01/26 04:31:37;;;;;;;9.43;4.73;;;;;;;2.26;100.00;-23878.88;5006931;28;20186;-76
2023/01/26 04:34:05;;;;;;;6.00;3.77;;;;;;;2.00;100.00;-23871.59;5007635;28;20286;-76
2023/01/26 04:36:31;;;;;;;10.50;4.70;;;;;;;1.99;100.00;-23871.31;5005539;28;20701;-75
2023/01/26 04:38:56;;;;;;;7.00;4.27;;;;;;;2.43;100.00;-23883.88;5006305;28;20608;-76
2023/01/26 04:41:22;;;;;;;9.07;4.13;;;;;;;2.08;100.00;-23874.03;5007343;28;20685;-76
2023/01/26 04:43:48;;;;;;;5.67;4.17;;;;;;;2.45;100.00;-23884.44;5006777;28;20542;-76
2023/01/26 04:46:13;;;;;;;4.53;3.57;;;;;;;2.09;100.00;-23874.16;5006615;28;20258;-75
2023/01/26 04:48:39;;;;;;;6.77;4.17;;;;;;;2.11;100.00;-23874.75;5005425;28;20176;-75
2023/01/26 04:51:08;;;;;;;3.90;3.37;;;;;;;2.11;100.00;-23874.75;5007077;28;20254;-75
2023/01/26 04:53:34;;;;;;;4.63;2.90;;;;;;;2.09;100.00;-23874.16;5007544;28;20269;-75
2023/01/26 04:56:00;;;;;;;6.47;3.73;;;;;;;2.08;100.00;-23874.03;5005534;28;20191;-75
2023/01/26 04:58:25;;;;;;;5.17;3.30;;;;;;;2.34;100.00;-23881.16;5005575;28;20192;-74
2023/01/26 05:00:56;;;;;;;5.37;3.13;;;;;;;2.18;100.00;-23876.75;5006395;28;20188;-75
2023/01/26 05:03:22;;;;;;;3.60;2.90;;;;;;;2.43;100.00;-23883.88;5014678;28;20206;-75
2023/01/26 05:05:49;;;;;;;5.80;4.03;;;;;;;2.37;100.00;-23882.16;5006342;28;20184;-74
2023/01/26 05:08:16;;;;;;;5.93;3.57;;;;;;;2.49;100.00;-23885.59;5005100;28;20746;-75
2023/01/26 05:10:41;;;;;;;9.77;4.30;;;;;;;2.21;100.00;-23877.59;5006879;28;20955;-76
2023/01/26 05:13:07;;;;;;;3.77;3.00;;;;;;;2.17;100.00;-23876.47;5005892;28;20307;-77
2023/01/26 05:15:34;;;;;;;6.17;4.03;;;;;;;2.23;100.00;-23878.31;5005993;28;20667;-76
2023/01/26 05:18:00;;;;;;;6.03;4.00;;;;;;;2.51;100.00;-23886.16;5006883;28;20566;-76
2023/01/26 05:20:26;;;;;;;6.73;3.37;;;;;;;1.79;100.00;-23865.75;5005859;28;20218;-75
2023/01/26 05:22:51;;;;;;;6.20;3.37;;;;;;;2.23;100.00;-23878.16;5005437;28;20548;-76
2023/01/26 05:25:17;;;;;;;5.60;3.20;;;;;;;2.45;100.00;-23884.44;5011806;28;20188;-75
2023/01/26 05:27:42;;;;;;;9.40;4.93;;;;;;;2.45;100.00;-23884.31;5018332;28;20551;-76
2023/01/26 05:30:09;;;;;;;6.00;4.03;;;;;;;2.18;100.00;-23876.75;5017452;28;20532;-77
2023/01/26 05:32:34;;;;;;;9.87;3.80;;;;;;;2.30;100.00;-23880.16;5015964;28;20207;-76
2023/01/26 05:35:00;;;;;;;5.03;3.40;;;;;;;2.03;100.00;-23872.59;5012877;28;20262;-77
2023/01/26 05:37:27;;;;;;;9.53;4.50;;;;;;;2.25;100.00;-23878.75;5013496;28;20204;-79
2023/01/26 05:39:52;;;;;;;6.70;3.23;;;;;;;2.06;100.00;-23873.47;5013232;28;20164;-75
2023/01/26 05:42:18;;;;;;;7.60;3.47;;;;;;;2.18;100.00;-23876.75;5012940;28;20242;-79
2023/01/26 05:44:43;;;;;;;5.20;3.43;;;;;;;1.79;100.00;-23865.75;5013524;28;20176;-75
2023/01/26 05:47:10;;;;;;;4.93;3.07;;;;;;;1.62;100.00;-23860.88;5012278;28;20192;-77
2023/01/26 05:49:38;;;;;;;5.67;3.27;;;;;;;1.41;100.00;-23854.88;5012913;28;20188;-76
2023/01/26 05:52:08;;;;;;;4.93;3.13;;;;;;;1.23;100.00;-23849.88;5012589;28;20191;-75
2023/01/26 05:54:34;;;;;;;6.03;3.57;;;;;;;1.99;100.00;-23871.47;5012918;28;20680;-76
2023/01/26 05:56:59;;;;;;;4.67;3.53;;;;;;;1.64;100.00;-23861.59;5012819;28;20263;-76
2023/01/26 05:59:24;;;;;;;4.90;2.73;;;;;;;2.02;100.00;-23872.31;5012501;28;20266;-75
2023/01/26 06:01:50;;;;;;;7.27;3.97;;;;;;;1.93;100.00;-23869.75;5012509;28;20555;-73
2023/01/26 06:04:15;;;;;;;6.97;3.77;;;;;;;1.46;100.00;-23856.47;5011508;28;20176;-72
2023/01/26 06:06:40;;;;;;;13.13;4.40;;;;;;;1.25;100.00;-23850.44;5017303;28;20183;-72
2023/01/26 06:09:06;;;;;;;6.50;3.63;;;;;;;1.76;100.00;-23864.88;5014174;28;20554;-72
2023/01/26 06:11:32;;;;;;;7.10;3.17;;;;;;;1.98;100.00;-23871.03;5011694;28;20219;-72
2023/01/26 06:13:58;;;;;;;8.97;3.93;;;;;;;1.76;100.00;-23865.03;5011805;28;20646;-72
2023/01/26 06:16:23;;;;;;;4.63;3.47;;;;;;;1.69;100.00;-23863.03;5012772;28;20206;-72
2023/01/26 06:18:48;;;;;;;12.80;4.00;;;;;;;1.45;100.00;-23856.03;5012419;28;20176;-74
2023/01/26 06:21:14;;;;;;;5.10;3.33;;;;;;;1.91;100.00;-23869.03;5011957;28;20639;-73
2023/01/26 06:23:40;;;;;;;4.93;3.43;;;;;;;2.18;100.00;-23876.75;5010728;28;20647;-72
2023/01/26 06:26:06;;;;;;;7.03;3.37;;;;;;;2.13;100.00;-23875.31;5011060;28;20254;-72
2023/01/26 06:28:31;;;;;;;5.70;3.37;;;;;;;2.15;100.00;-23876.03;5010911;28;20230;-72
2023/01/26 06:31:04;;;;;;;6.87;3.67;;;;;;;1.65;100.00;-23861.88;5011413;28;20191;-71
2023/01/26 06:33:35;;;;;;;4.63;2.83;;;;;;;1.86;100.00;-23867.59;5011449;28;20613;-73
2023/01/26 06:36:06;;;;;;;6.73;4.40;;;;;;;1.81;100.00;-23866.16;5011020;28;20183;-73
2023/01/26 06:38:31;;;;;;;4.53;3.37;;;;;;;1.85;100.00;-23867.31;5011049;28;20180;-73
2023/01/26 06:41:01;;;;;;;10.37;4.07;;;;;;;1.72;100.00;-23863.88;5011448;28;20186;-72
2023/01/26 06:43:31;;;;;;;6.50;3.10;;;;;;;2.25;100.00;-23878.75;5011287;28;20663;-73
2023/01/26 06:45:57;;;;;;;3.87;2.80;;;;;;;1.80;100.00;-23866.03;5011541;28;20183;-72
2023/01/26 06:48:26;;;;;;;5.13;3.20;;;;;;;2.40;100.00;-23882.88;5011000;28;20233;-71
2023/01/26 06:50:56;;;;;;;4.23;2.77;;;;;;;2.23;100.00;-23878.31;5011331;28;20187;-71
2023/01/26 06:53:25;;;;;;;4.13;2.83;;;;;;;1.99;100.00;-23871.47;5011157;28;20701;-72
2023/01/26 06:55:51;;;;;;;4.73;3.47;;;;;;;1.90;100.00;-23868.88;5011201;28;20175;-71
2023/01/26 06:58:16;;;;;;;7.33;3.40;;;;;;;1.64;100.00;-23861.59;5010137;28;20180;-71
2023/01/26 07:00:42;;;;;;;6.03;3.90;;;;;;;1.55;100.00;-23859.03;5010914;28;20176;-70
2023/01/26 07:03:09;;;;;;;5.63;3.63;;;;;;;1.72;100.00;-23863.88;5011409;28;20283;-72
2023/01/26 07:05:35;;;;;;;6.17;3.20;;;;;;;1.71;100.00;-23863.47;5010780;28;20629;-71
2023/01/26 07:08:03;;;;;;;6.40;3.37;;;;;;;1.97;100.00;-23870.88;5011046;28;20183;-72
2023/01/26 07:10:29;;;;;;;4.57;3.87;;;;;;;1.97;100.00;-23870.88;5011260;28;20251;-74
2023/01/26 07:12:54;;;;;;;6.13;3.63;;;;;;;1.84;100.00;-23867.03;5010861;28;20706;-73
2023/01/26 07:15:20;;;;;;;4.77;3.83;;;;;;;2.05;100.00;-23873.16;5011840;28;20251;-73
2023/01/26 07:17:45;;;;;;;6.20;3.43;;;;;;;2.36;100.00;-23881.88;5011453;28;20700;-73
2023/01/26 07:20:10;;;;;;;5.93;3.77;;;;;;;2.36;100.00;-23881.88;5010482;28;20673;-73
2023/01/26 07:22:36;;;;;;;7.07;3.90;;;;;;;2.03;100.00;-23872.59;5019655;28;20275;-73
2023/01/26 07:25:01;;;;;;;4.90;3.07;;;;;;;2.00;100.00;-23871.75;5011136;28;20184;-72
2023/01/26 07:27:27;;;;;;;5.70;3.23;;;;;;;2.08;100.00;-23873.88;5011083;28;20188;-71
2023/01/26 07:29:52;;;;;;;4.93;3.40;;;;;;;1.81;100.00;-23866.16;5011263;28;20194;-71
2023/01/26 07:32:17;;;;;;;7.60;3.77;;;;;;;1.89;100.00;-23868.59;5011872;28;20183;-70
2023/01/26 07:34:43;;;;;;;3.70;3.07;;;;;;;2.24;100.00;-23878.47;5014481;28;20196;-71
2023/01/26 07:37:08;;;;;;;5.40;3.60;;;;;;;2.50;100.00;-23885.72;5014596;28;20175;-72
2023/01/26 07:39:34;;;;;;;8.97;3.70;;;;;;;2.85;100.00;-23895.59;5014334;28;20711;-72
2023/01/26 07:41:59;;;;;;;4.17;2.90;;;;;;;2.54;100.00;-23887.03;5014480;28;20168;-71
2023/01/26 07:44:24;;;;;;;6.23;2.60;;;;;;;2.57;100.00;-23887.72;5015221;28;20191;-71
2023/01/26 07:46:50;;;;;;;2.97;2.67;;;;;;;2.93;100.00;-23898.00;5021871;28;20562;-71
2023/01/26 07:49:15;;;;;;;3.73;2.60;;;;;;;2.91;100.00;-23897.44;5013958;28;20315;-72
2023/01/26 07:51:41;;;;;;;5.23;2.80;;;;;;;2.85;100.00;-23895.72;5014470;28;20542;-72
2023/01/26 07:54:11;;;;;;;5.50;3.37;;;;;;;2.94;100.00;-23898.16;5013671;28;20199;-72
2023/01/26 07:56:37;;;;;;;3.80;3.00;;;;;;;2.66;100.00;-23890.44;5012594;28;20172;-72
2023/01/26 07:59:03;;;;;;;5.03;3.33;;;;;;;2.97;100.00;-23899.00;5012953;28;20187;-72
2023/01/26 08:01:28;;;;;;;2.83;1.90;;;;;;;2.62;100.00;-23889.16;5013279;28;20207;-73
2023/01/26 08:03:54;;;;;;;6.13;3.03;;;;;;;2.72;100.00;-23892.03;5022435;28;20279;-72
2023/01/26 08:06:20;;;;;;;6.13;3.63;;;;;;;2.89;100.00;-23896.88;5014687;28;20179;-73
2023/01/26 08:08:51;;;;;;;3.53;2.20;;;;;;;2.45;100.00;-23884.44;5014702;28;20264;-75
2023/01/26 08:11:22;;;;;;;2.63;2.43;;;;;;;2.76;100.00;-23893.16;5007278;28;20250;-75
2023/01/26 08:13:47;;;;;;;3.50;3.20;;;;;;;2.32;100.00;-23880.75;5007591;28;20266;-74
2023/01/26 08:16:13;;;;;;;5.37;3.97;;;;;;;2.56;100.00;-23887.44;5005831;28;20183;-71
2023/01/26 08:18:44;;;;;;;4.30;2.70;;;;;;;2.78;100.00;-23893.59;5006880;28;20193;-74
2023/01/26 08:21:11;;;;;;;3.87;2.70;;;;;;;2.74;100.00;-23892.44;5007803;28;20257;-71
2023/01/26 08:23:37;;;;;;;3.63;3.03;;;;;;;2.34;100.00;-23881.31;5006299;28;20203;-73
2023/01/26 08:26:05;;;;;;;4.53;3.67;;;;;;;2.49;100.00;-23885.59;5006951;28;20238;-72
2023/01/26 08:28:31;;;;;;;5.47;3.03;;;;;;;2.32;100.00;-23880.75;5006197;28;20180;-73
2023/01/26 08:31:06;;;;;;;2.53;2.13;;;;;;;2.78;100.00;-23893.72;5006034;28;20180;-74
2023/01/26 08:33:32;;;;;;;6.47;3.13;;;;;;;2.23;100.00;-23878.16;5007049;28;20766;-73
2023/01/26 08:36:06;;;;;;;3.93;3.00;;;;;;;2.19;100.00;-23877.03;5006625;28;20179;-72
2023/01/26 08:38:32;;;;;;;3.80;3.07;;;;;;;2.50;100.00;-23885.72;5006713;28;21742;-74
2023/01/26 08:40:58;;;;;;;4.67;2.93;;;;;;;2.22;100.00;-23877.88;5006952;28;20184;-73
2023/01/26 08:43:24;;;;;;;4.83;2.50;;;;;;;2.59;100.00;-23888.31;5006327;28;20180;-73
2023/01/26 08:45:49;;;;;;;4.13;2.17;;;;;;;2.49;100.00;-23885.59;5007233;28;20191;-73
2023/01/26 08:48:15;;;;;;;2.97;2.33;;;;;;;2.50;100.00;-23885.88;5007197;28;20562;-73
2023/01/26 08:50:40;;;;;;;4.97;2.67;;;;;;;2.18;100.00;-23876.88;5006209;28;20529;-74
2023/01/26 08:53:05;;;;;;;2.67;2.17;;;;;;;2.14;100.00;-23875.59;5007345;28;20311;-74
2023/01/26 08:55:32;;;;;;;4.67;2.77;;;;;;;2.15;100.00;-23875.88;5007732;28;20207;-73
2023/01/26 08:57:58;;;;;;;4.10;3.27;;;;;;;2.31;100.00;-23880.31;5006417;28;20279;-74
2023/01/26 09:00:24;;;;;;;5.13;2.87;;;;;;;2.12;100.00;-23875.03;5007429;28;20724;-73
2023/01/26 09:02:50;;;;;;;4.10;2.23;;;;;;;1.89;100.00;-23868.47;5007442;28;20727;-73
2023/01/26 09:05:16;;;;;;;2.90;2.00;;;;;;;1.77;100.00;-23865.31;5006546;28;20187;-73
2023/01/26 09:07:42;;;;;;;3.93;2.80;;;;;;;1.75;100.00;-23864.75;5006988;28;20604;-73
2023/01/26 09:10:08;;;;;;;1.90;1.70;;;;;;;1.92;100.00;-23869.31;5006088;28;20198;-73
2023/01/26 09:12:33;;;;;;;3.30;2.47;;;;;;;1.97;100.00;-23870.88;5006509;28;20216;-72
2023/01/26 09:14:59;;;;;;;4.37;2.50;;;;;;;2.11;100.00;-23874.75;5006205;28;20207;-72
2023/01/26 09:17:24;;;;;;;5.07;2.87;;;;;;;1.74;100.00;-23864.47;5007614;28;20214;-72
2023/01/26 09:19:49;;;;;;;2.50;2.30;;;;;;;2.01;100.00;-23872.03;5006430;28;20661;-72
2023/01/26 09:22:15;;;;;;;2.77;2.47;;;;;;;1.99;100.00;-23871.47;5005225;28;20186;-73
2023/01/26 09:24:40;;;;;;;4.53;2.83;;;;;;;1.88;100.00;-23868.16;5005638;28;20655;-72
2023/01/26 09:27:06;;;;;;;3.03;2.73;;;;;;;1.89;100.00;-23868.59;5006017;28;20204;-73
2023/01/26 09:29:31;;;;;;;2.57;2.37;;;;;;;2.06;100.00;-23873.31;5006379;28;20183;-73
2023/01/26 09:31:57;;;;;;;4.67;2.43;;;;;;;2.11;100.00;-23874.75;5005914;28;20265;-72
2023/01/26 09:34:24;;;;;;;4.23;2.63;;;;;;;1.88;100.00;-23868.16;5005614;28;20218;-73
2023/01/26 09:36:49;;;;;;;10.40;2.23;;;;;;;1.96;100.00;-23870.47;5006563;28;20182;-73
2023/01/26 09:39:15;;;;;;;2.43;2.00;;;;;;;1.67;100.00;-23862.47;5005145;28;20560;-72
2023/01/26 09:41:56;;;;;;;2.73;2.20;;;;;;;1.91;100.00;-23869.16;5006370;28;20184;-73
2023/01/26 09:44:24;;;;;;;6.20;2.97;;;;;;;1.57;100.00;-23859.59;5006321;28;20182;-73
2023/01/26 09:46:55;;;;;;;7.07;3.00;;;;;;;1.71;100.00;-23863.47;5006000;28;20199;-75
2023/01/26 09:49:30;;;;;;;3.77;2.50;;;;;;;1.70;100.00;-23863.16;5005108;28;20181;-73
2023/01/26 09:51:55;;;;;;;6.20;3.57;;;;;;;2.00;100.00;-23871.75;5006193;28;20230;-73
2023/01/26 09:54:37;;;;;;;3.57;2.43;;;;;;;1.99;100.00;-23871.31;5003830;28;20242;-73
2023/01/26 09:57:13;;;;;;;4.20;3.03;;;;;;;1.96;100.00;-23870.47;5004947;28;20185;-73
2023/01/26 09:59:49;;;;;;;4.07;2.93;;;;;;;1.70;100.00;-23863.31;5006025;28;20177;-72
2023/01/26 10:02:39;;;;;;;5.40;2.50;;;;;;;2.05;100.00;-23873.03;5005752;28;20171;-73
2023/01/26 10:05:15;;;;;;;2.77;2.47;;;;;;;1.96;100.00;-23870.59;5006369;28;20197;-73
2023/01/26 10:07:44;;;;;;;4.07;3.17;;;;;;;1.59;100.00;-23860.03;5005082;28;20188;-73
2023/01/26 10:10:17;;;;;;;7.40;3.87;;;;;;;1.77;100.00;-23865.16;5006177;28;20598;-73
2023/01/26 10:12:43;;;;;;;4.97;2.93;;;;;;;2.10;100.00;-23874.59;5004640;28;20227;-73
2023/01/26 10:15:37;;;;;;;5.30;3.70;;;;;;;1.99;100.00;-23871.31;5005022;28;20220;-74
2023/01/26 10:18:14;;;;;;;9.43;3.30;;;;;;;1.67;100.00;-23862.31;5005551;28;20196;-73
2023/01/26 10:20:44;;;;;;;4.80;3.50;;;;;;;1.76;100.00;-23865.03;5005576;28;20265;-72
2023/01/26 10:23:17;;;;;;;5.80;3.53;;;;;;;1.35;100.00;-23853.31;5004524;28;20215;-74
2023/01/26 10:25:45;;;;;;;5.67;3.37;;;;;;;1.87;100.00;-23868.03;5005297;28;20729;-73
2023/01/26 10:28:23;;;;;;;7.83;3.10;;;;;;;1.83;100.00;-23866.75;5004679;28;20179;-73
2023/01/26 10:30:50;;;;;;;4.40;3.17;;;;;;;2.29;100.00;-23879.88;5004475;28;20188;-72
2023/01/26 10:33:22;;;;;;;3.90;2.73;;;;;;;2.08;100.00;-23873.88;5003223;28;20203;-73
2023/01/26 10:35:48;;;;;;;6.10;3.67;;;;;;;2.32;100.00;-23880.59;5004335;28;20182;-73
2023/01/26 10:38:32;;;;;;;8.67;3.60;;;;;;;2.29;100.00;-23879.88;5005324;28;20184;-73
2023/01/26 10:41:24;;;;;;;7.60;3.27;;;;;;;1.73;100.00;-23864.16;5004917;28;21035;-73
2023/01/26 10:44:03;;;;;;;4.77;3.13;;;;;;;2.33;100.00;-23880.88;5004667;28;20262;-72
2023/01/26 10:46:37;;;;;;;5.43;3.13;;;;;;;2.22;100.00;-23877.88;5005493;28;20686;-73
2023/01/26 10:49:15;;;;;;;8.17;3.60;;;;;;;2.25;100.00;-23878.75;5005471;28;20192;-73
2023/01/26 10:51:46;;;;;;;6.30;3.67;;;;;;;1.63;100.00;-23861.31;5004423;28;20513;-73
2023/01/26 10:54:14;;;;;;;10.23;4.30;;;;;;;2.38;100.00;-23882.31;5004789;28;20204;-72
2023/01/26 10:56:50;;;;;;;5.60;3.40;;;;;;;2.20;100.00;-23877.47;5002411;28;20176;-72
2023/01/26 10:59:25;;;;;;;6.27;3.67;;;;;;;2.40;100.00;-23882.88;5003959;28;20668;-72
2023/01/26 11:02:22;;;;;;;8.03;3.57;;;;;;;2.38;100.00;-23882.31;5004724;28;20334;-72
2023/01/26 11:05:08;;;;;;;10.67;4.83;;;;;;;2.41;100.00;-23883.31;4990510;28;20200;-71
2023/01/26 11:07:37;;;;;;;5.57;3.00;;;;;;;2.45;100.00;-23884.31;5007817;28;20180;-71
2023/01/26 11:10:21;;;;;;;6.97;4.17;;;;;;;2.51;100.00;-23886.03;5007407;28;20226;-71
2023/01/26 11:12:47;;;;;;;7.50;3.90;;;;;;;2.59;100.00;-23888.44;5018684;28;20230;-72
2023/01/26 11:15:26;;;;;;;6.97;3.67;;;;;;;2.69;100.00;-23891.16;5029031;28;20187;-72
2023/01/26 11:18:13;;;;;;;3.77;2.60;;;;;;;2.72;100.00;-23892.03;5029610;28;20167;-73
2023/01/26 11:21:05;;;;;;;6.60;3.90;;;;;;;2.59;100.00;-23888.31;5008512;28;20188;-72
2023/01/26 11:23:36;;;;;;;4.30;2.80;;;;;;;2.71;100.00;-23891.59;5008845;28;20219;-72
2023/01/26 11:26:25;;;;;;;5.30;3.50;;;;;;;2.34;100.00;-23881.31;5007646;28;20242;-72
2023/01/26 11:29:32;;;;;;;5.23;3.33;;;;;;;2.65;100.00;-23890.16;5007711;28;20172;-72
2023/01/26 11:32:11;;;;;;;6.60;4.37;;;;;;;2.71;100.00;-23891.72;5008513;28;20203;-71
2023/01/26 11:34:53;;;;;;;4.60;3.50;;;;;;;2.76;100.00;-23893.16;5008014;28;20196;-71
2023/01/26 11:37:37;;;;;;;7.27;3.53;;;;;;;2.75;100.00;-23892.72;5007286;28;20253;-73
2023/01/26 11:40:36;;;;;;;8.13;2.70;;;;;;;2.80;100.00;-23894.16;5008725;28;20192;-73
2023/01/26 11:43:37;;;;;;;3.70;2.63;;;;;;;2.71;100.00;-23891.72;4998378;28;20280;-73
2023/01/26 11:46:08;;;;;;;6.17;3.53;;;;;;;2.52;100.00;-23886.31;5007398;28;20191;-73
2023/01/26 11:48:36;;;;;;;6.57;4.03;;;;;;;2.85;100.00;-23895.59;5006872;28;20212;-72
2023/01/26 11:51:30;;;;;;;8.93;4.47;;;;;;;2.97;100.00;-23899.16;5008284;28;20578;-71
2023/01/26 11:54:25;;;;;;;5.77;3.27;;;;;;;2.33;100.00;-23880.88;5008064;28;20239;-72
2023/01/26 11:56:58;;;;;;;3.93;2.90;;;;;;;2.92;100.00;-23897.72;5007492;28;20650;-71
2023/01/26 11:59:33;;;;;;;7.30;3.97;;;;;;;3.01;100.00;-23900.16;5007677;28;20192;-72
2023/01/26 12:02:17;;;;;;;4.43;2.67;;;;;;;3.05;100.00;-23901.28;5007301;28;20183;-73
2023/01/26 12:04:45;;;;;;;4.50;2.80;;;;;;;2.73;100.00;-23892.16;5007199;28;20238;-72
2023/01/26 12:07:20;;;;;;;6.00;3.37;;;;;;;3.03;100.00;-23900.88;5007632;28;20626;-72
2023/01/26 12:09:47;;;;;;;6.47;3.43;;;;;;;2.92;100.00;-23897.56;5007919;28;20215;-74
2023/01/26 12:12:45;;;;;;;6.33;3.80;;;;;;;3.02;100.00;-23900.44;5008247;28;20294;-72
2023/01/26 12:15:33;;;;;;;5.10;3.10;;;;;;;2.74;100.00;-23892.44;5007642;28;20732;-73
2023/01/26 12:18:04;;;;;;;4.87;2.67;;;;;;;2.49;100.00;-23885.59;5006819;28;20184;-72